sensor_id;sensor_type;location;lat;lon;timestamp;pressure;altitude;pressure_sealevel;temperature;humidity
10948;BME280;5526;42.070;24.752;2023-05-19T00:01:36;98988.53;;;15.66;88.74
10948;BME280;5526;42.070;24.752;2023-05-19T00:04:05;98999.72;;;15.63;88.43
10948;BME280;5526;42.070;24.752;2023-05-19T00:06:32;98985.66;;;15.62;88.76
10948;BME280;5526;42.070;24.752;2023-05-19T00:09:02;98981.94;;;15.63;88.81
10948;BME280;5526;42.070;24.752;2023-05-19T00:11:29;98984.09;;;15.61;88.12
10948;BME280;5526;42.070;24.752;2023-05-19T00:13:58;98988.47;;;15.71;87.77
10948;BME280;5526;42.070;24.752;2023-05-19T00:16:26;98977.94;;;15.66;87.69
10948;BME280;5526;42.070;24.752;2023-05-19T00:18:54;98986.94;;;15.65;87.94
10948;BME280;5526;42.070;24.752;2023-05-19T00:21:22;98987.47;;;15.67;87.77
10948;BME280;5526;42.070;24.752;2023-05-19T00:23:50;98972.47;;;15.57;88.04
10948;BME280;5526;42.070;24.752;2023-05-19T00:26:17;98980.34;;;15.62;87.77
10948;BME280;5526;42.070;24.752;2023-05-19T00:28:44;98975.75;;;15.68;87.94
10948;BME280;5526;42.070;24.752;2023-05-19T00:31:11;98991.47;;;15.64;88.21
10948;BME280;5526;42.070;24.752;2023-05-19T00:33:38;98978.84;;;15.56;88.12
10948;BME280;5526;42.070;24.752;2023-05-19T00:36:06;98977.97;;;15.61;88.63
10948;BME280;5526;42.070;24.752;2023-05-19T00:38:35;98976.94;;;15.62;88.13
10948;BME280;5526;42.070;24.752;2023-05-19T00:41:04;98977.22;;;15.60;87.84
10948;BME280;5526;42.070;24.752;2023-05-19T00:43:31;98976.13;;;15.61;88.15
10948;BME280;5526;42.070;24.752;2023-05-19T00:45:59;98974.03;;;15.58;88.35
10948;BME280;5526;42.070;24.752;2023-05-19T00:48:26;98976.22;;;15.56;88.29
10948;BME280;5526;42.070;24.752;2023-05-19T00:50:55;98973.31;;;15.53;88.56
10948;BME280;5526;42.070;24.752;2023-05-19T00:53:29;98967.53;;;15.51;88.81
10948;BME280;5526;42.070;24.752;2023-05-19T00:55:58;98981.56;;;15.51;87.71
10948;BME280;5526;42.070;24.752;2023-05-19T00:58:26;98965.59;;;15.56;87.60
10948;BME280;5526;42.070;24.752;2023-05-19T01:00:56;98964.78;;;15.56;87.96
10948;BME280;5526;42.070;24.752;2023-05-19T01:03:29;98967.97;;;15.58;87.66
10948;BME280;5526;42.070;24.752;2023-05-19T01:05:57;98951.38;;;15.47;87.82
10948;BME280;5526;42.070;24.752;2023-05-19T01:08:30;98960.34;;;15.51;87.96
10948;BME280;5526;42.070;24.752;2023-05-19T01:10:59;98969.09;;;15.52;86.09
10948;BME280;5526;42.070;24.752;2023-05-19T01:13:26;98962.38;;;15.59;86.61
10948;BME280;5526;42.070;24.752;2023-05-19T01:15:59;98967.97;;;15.58;85.54
10948;BME280;5526;42.070;24.752;2023-05-19T01:18:39;98965.44;;;15.66;85.90
10948;BME280;5526;42.070;24.752;2023-05-19T01:27:40;98970.47;;;15.68;85.31
10948;BME280;5526;42.070;24.752;2023-05-19T01:30:23;98967.81;;;15.68;84.52
10948;BME280;5526;42.070;24.752;2023-05-19T01:32:53;98968.09;;;15.66;85.25
10948;BME280;5526;42.070;24.752;2023-05-19T01:35:24;98959.00;;;15.72;84.67
10948;BME280;5526;42.070;24.752;2023-05-19T01:37:54;98965.38;;;15.71;84.63
10948;BME280;5526;42.070;24.752;2023-05-19T01:40:23;98958.72;;;15.74;84.70
10948;BME280;5526;42.070;24.752;2023-05-19T01:42:52;98967.41;;;15.79;83.98
10948;BME280;5526;42.070;24.752;2023-05-19T01:45:22;98967.09;;;15.81;83.50
10948;BME280;5526;42.070;24.752;2023-05-19T01:47:53;98961.19;;;15.84;83.30
10948;BME280;5526;42.070;24.752;2023-05-19T01:50:20;98972.09;;;15.82;83.89
10948;BME280;5526;42.070;24.752;2023-05-19T01:52:48;98968.41;;;15.83;84.13
10948;BME280;5526;42.070;24.752;2023-05-19T01:55:15;98975.34;;;15.79;84.29
10948;BME280;5526;42.070;24.752;2023-05-19T01:57:48;98977.94;;;15.84;84.01
10948;BME280;5526;42.070;24.752;2023-05-19T02:00:29;98980.59;;;15.84;83.84
10948;BME280;5526;42.070;24.752;2023-05-19T02:03:06;98975.56;;;15.83;83.37
10948;BME280;5526;42.070;24.752;2023-05-19T02:05:39;98975.06;;;15.81;83.16
10948;BME280;5526;42.070;24.752;2023-05-19T02:08:23;98984.31;;;15.83;82.99
10948;BME280;5526;42.070;24.752;2023-05-19T02:10:57;98985.16;;;15.79;83.00
10948;BME280;5526;42.070;24.752;2023-05-19T02:13:30;98987.75;;;15.84;83.07
10948;BME280;5526;42.070;24.752;2023-05-19T02:16:03;98985.31;;;15.87;82.98
10948;BME280;5526;42.070;24.752;2023-05-19T02:18:31;98988.19;;;15.91;83.03
10948;BME280;5526;42.070;24.752;2023-05-19T02:21:00;98986.81;;;15.93;82.99
10948;BME280;5526;42.070;24.752;2023-05-19T02:23:27;98993.69;;;15.94;82.42
10948;BME280;5526;42.070;24.752;2023-05-19T02:25:54;98990.25;;;15.94;82.42
10948;BME280;5526;42.070;24.752;2023-05-19T02:28:21;98985.16;;;15.97;82.06
10948;BME280;5526;42.070;24.752;2023-05-19T02:30:48;98993.63;;;15.99;81.92
10948;BME280;5526;42.070;24.752;2023-05-19T02:33:16;98992.03;;;15.98;81.42
10948;BME280;5526;42.070;24.752;2023-05-19T02:35:44;98995.50;;;15.99;82.00
10948;BME280;5526;42.070;24.752;2023-05-19T02:38:11;98986.66;;;16.03;81.85
10948;BME280;5526;42.070;24.752;2023-05-19T02:40:38;98962.50;;;15.86;81.60
10948;BME280;5526;42.070;24.752;2023-05-19T02:43:05;98995.72;;;16.02;81.73
10948;BME280;5526;42.070;24.752;2023-05-19T02:45:32;98989.91;;;16.00;81.99
10948;BME280;5526;42.070;24.752;2023-05-19T02:47:59;98999.72;;;16.00;81.79
10948;BME280;5526;42.070;24.752;2023-05-19T02:50:28;98991.25;;;15.98;81.92
10948;BME280;5526;42.070;24.752;2023-05-19T02:52:55;98989.69;;;15.97;82.13
10948;BME280;5526;42.070;24.752;2023-05-19T02:55:22;98993.91;;;15.98;81.92
10948;BME280;5526;42.070;24.752;2023-05-19T02:57:49;99000.00;;;15.98;82.22
10948;BME280;5526;42.070;24.752;2023-05-19T03:00:16;98986.25;;;15.96;81.86
10948;BME280;5526;42.070;24.752;2023-05-19T03:02:43;98999.72;;;16.00;81.74
10948;BME280;5526;42.070;24.752;2023-05-19T03:05:10;98988.59;;;15.98;81.72
10948;BME280;5526;42.070;24.752;2023-05-19T03:07:40;98993.41;;;15.96;82.18
10948;BME280;5526;42.070;24.752;2023-05-19T03:10:07;98990.91;;;15.86;82.72
10948;BME280;5526;42.070;24.752;2023-05-19T03:12:34;99003.81;;;15.92;82.34
10948;BME280;5526;42.070;24.752;2023-05-19T03:15:02;99006.41;;;15.97;82.64
10948;BME280;5526;42.070;24.752;2023-05-19T03:17:29;99006.91;;;15.99;82.70
10948;BME280;5526;42.070;24.752;2023-05-19T03:19:59;99005.91;;;15.95;82.43
10948;BME280;5526;42.070;24.752;2023-05-19T03:22:26;99000.59;;;15.95;82.41
10948;BME280;5526;42.070;24.752;2023-05-19T03:24:55;98993.06;;;16.02;82.80
10948;BME280;5526;42.070;24.752;2023-05-19T03:27:23;99001.09;;;15.97;82.87
10948;BME280;5526;42.070;24.752;2023-05-19T03:29:50;99011.22;;;15.95;83.17
10948;BME280;5526;42.070;24.752;2023-05-19T03:32:18;99012.25;;;15.94;83.25
10948;BME280;5526;42.070;24.752;2023-05-19T03:34:45;99021.22;;;15.98;83.04
10948;BME280;5526;42.070;24.752;2023-05-19T03:37:12;99018.53;;;16.03;83.14
10948;BME280;5526;42.070;24.752;2023-05-19T03:39:39;99015.59;;;16.05;82.74
10948;BME280;5526;42.070;24.752;2023-05-19T03:42:07;99019.66;;;15.97;82.87
10948;BME280;5526;42.070;24.752;2023-05-19T03:44:34;99023.28;;;16.06;83.23
10948;BME280;5526;42.070;24.752;2023-05-19T03:47:01;99017.97;;;16.06;83.15
10948;BME280;5526;42.070;24.752;2023-05-19T03:49:28;99009.28;;;16.01;83.42
10948;BME280;5526;42.070;24.752;2023-05-19T03:51:55;99003.09;;;16.05;83.43
10948;BME280;5526;42.070;24.752;2023-05-19T03:54:22;99025.41;;;16.04;83.52
10948;BME280;5526;42.070;24.752;2023-05-19T03:56:49;99029.06;;;16.08;83.61
10948;BME280;5526;42.070;24.752;2023-05-19T03:59:18;99029.16;;;16.03;83.87
10948;BME280;5526;42.070;24.752;2023-05-19T04:01:45;99028.34;;;16.03;84.39
10948;BME280;5526;42.070;24.752;2023-05-19T04:04:13;99033.88;;;16.06;84.34
10948;BME280;5526;42.070;24.752;2023-05-19T04:06:40;99035.75;;;16.06;85.01
10948;BME280;5526;42.070;24.752;2023-05-19T04:09:11;99041.25;;;16.09;84.92
10948;BME280;5526;42.070;24.752;2023-05-19T04:11:39;99039.41;;;16.10;84.25
10948;BME280;5526;42.070;24.752;2023-05-19T04:14:06;99037.19;;;16.17;84.07
10948;BME280;5526;42.070;24.752;2023-05-19T04:16:35;99030.97;;;16.21;84.14
10948;BME280;5526;42.070;24.752;2023-05-19T04:19:02;99032.31;;;16.24;84.33
10948;BME280;5526;42.070;24.752;2023-05-19T04:21:29;99033.31;;;16.28;84.45
10948;BME280;5526;42.070;24.752;2023-05-19T04:23:56;99029.56;;;16.29;84.21
10948;BME280;5526;42.070;24.752;2023-05-19T04:26:24;99032.41;;;16.32;84.27
10948;BME280;5526;42.070;24.752;2023-05-19T04:28:51;99040.09;;;16.34;84.44
10948;BME280;5526;42.070;24.752;2023-05-19T04:31:18;99047.88;;;16.30;84.25
10948;BME280;5526;42.070;24.752;2023-05-19T04:33:47;99044.84;;;16.37;83.52
10948;BME280;5526;42.070;24.752;2023-05-19T04:36:14;99043.97;;;16.41;83.75
10948;BME280;5526;42.070;24.752;2023-05-19T04:38:45;99052.22;;;16.40;84.38
10948;BME280;5526;42.070;24.752;2023-05-19T04:41:13;99057.03;;;16.56;83.89
10948;BME280;5526;42.070;24.752;2023-05-19T04:43:41;99063.84;;;16.94;83.39
10948;BME280;5526;42.070;24.752;2023-05-19T04:46:09;99065.94;;;17.25;82.39
10948;BME280;5526;42.070;24.752;2023-05-19T04:48:37;99061.63;;;17.29;82.12
10948;BME280;5526;42.070;24.752;2023-05-19T04:51:06;99062.72;;;17.41;80.73
10948;BME280;5526;42.070;24.752;2023-05-19T04:53:33;99060.75;;;17.60;80.19
10948;BME280;5526;42.070;24.752;2023-05-19T04:56:01;99064.66;;;17.90;78.71
10948;BME280;5526;42.070;24.752;2023-05-19T04:58:28;99067.03;;;18.27;77.77
10948;BME280;5526;42.070;24.752;2023-05-19T05:00:55;99061.38;;;18.42;76.53
10948;BME280;5526;42.070;24.752;2023-05-19T05:03:22;99066.47;;;18.52;75.90
10948;BME280;5526;42.070;24.752;2023-05-19T05:05:50;99078.16;;;18.64;74.00
10948;BME280;5526;42.070;24.752;2023-05-19T05:08:19;99072.56;;;18.74;74.47
10948;BME280;5526;42.070;24.752;2023-05-19T05:10:49;99073.88;;;19.07;73.59
10948;BME280;5526;42.070;24.752;2023-05-19T05:13:17;99081.13;;;19.37;73.03
10948;BME280;5526;42.070;24.752;2023-05-19T05:15:45;99077.25;;;19.52;71.77
10948;BME280;5526;42.070;24.752;2023-05-19T05:18:13;99081.53;;;19.78;70.78
10948;BME280;5526;42.070;24.752;2023-05-19T05:20:41;99084.72;;;19.80;69.98
10948;BME280;5526;42.070;24.752;2023-05-19T05:23:09;99084.06;;;19.83;71.28
10948;BME280;5526;42.070;24.752;2023-05-19T05:25:41;99090.91;;;20.15;70.49
10948;BME280;5526;42.070;24.752;2023-05-19T05:28:08;99092.13;;;20.09;69.57
10948;BME280;5526;42.070;24.752;2023-05-19T05:30:36;99085.00;;;19.87;69.37
10948;BME280;5526;42.070;24.752;2023-05-19T05:33:03;99096.88;;;20.12;69.64
10948;BME280;5526;42.070;24.752;2023-05-19T05:35:30;99088.69;;;20.17;69.58
10948;BME280;5526;42.070;24.752;2023-05-19T05:37:57;99092.94;;;20.09;69.46
10948;BME280;5526;42.070;24.752;2023-05-19T05:40:26;99099.13;;;20.35;69.46
10948;BME280;5526;42.070;24.752;2023-05-19T05:42:55;99094.69;;;20.56;68.16
10948;BME280;5526;42.070;24.752;2023-05-19T05:45:24;99100.22;;;20.51;67.53
10948;BME280;5526;42.070;24.752;2023-05-19T05:47:51;99082.44;;;20.21;68.51
10948;BME280;5526;42.070;24.752;2023-05-19T05:50:19;99094.06;;;20.25;67.20
10948;BME280;5526;42.070;24.752;2023-05-19T05:52:47;99097.06;;;20.49;68.17
10948;BME280;5526;42.070;24.752;2023-05-19T05:55:15;99086.50;;;20.78;67.35
10948;BME280;5526;42.070;24.752;2023-05-19T05:57:43;99092.03;;;20.65;67.10
10948;BME280;5526;42.070;24.752;2023-05-19T06:00:12;99091.38;;;20.76;66.81
10948;BME280;5526;42.070;24.752;2023-05-19T06:02:44;99100.19;;;20.68;66.05
10948;BME280;5526;42.070;24.752;2023-05-19T06:05:11;99102.53;;;20.61;66.74
10948;BME280;5526;42.070;24.752;2023-05-19T06:07:39;99111.81;;;20.38;65.10
10948;BME280;5526;42.070;24.752;2023-05-19T06:10:07;99112.78;;;20.51;65.39
10948;BME280;5526;42.070;24.752;2023-05-19T06:12:34;99127.72;;;20.18;65.77
10948;BME280;5526;42.070;24.752;2023-05-19T06:15:05;99130.09;;;20.36;65.37
10948;BME280;5526;42.070;24.752;2023-05-19T06:17:34;99128.22;;;20.62;64.96
10948;BME280;5526;42.070;24.752;2023-05-19T06:20:01;99127.56;;;20.57;65.93
10948;BME280;5526;42.070;24.752;2023-05-19T06:22:29;99128.03;;;20.59;66.17
10948;BME280;5526;42.070;24.752;2023-05-19T06:24:56;99134.16;;;20.42;66.64
10948;BME280;5526;42.070;24.752;2023-05-19T06:27:23;99125.16;;;20.89;66.59
10948;BME280;5526;42.070;24.752;2023-05-19T06:29:51;99123.69;;;21.35;65.07
10948;BME280;5526;42.070;24.752;2023-05-19T06:32:18;99129.75;;;20.80;67.04
10948;BME280;5526;42.070;24.752;2023-05-19T06:34:47;99133.53;;;20.79;66.08
10948;BME280;5526;42.070;24.752;2023-05-19T06:37:19;99132.28;;;20.43;66.69
10948;BME280;5526;42.070;24.752;2023-05-19T06:39:47;99143.31;;;20.50;66.95
10948;BME280;5526;42.070;24.752;2023-05-19T06:42:17;99142.66;;;20.44;67.49
10948;BME280;5526;42.070;24.752;2023-05-19T06:44:47;99144.41;;;20.49;67.37
10948;BME280;5526;42.070;24.752;2023-05-19T06:47:15;99132.75;;;20.53;67.62
10948;BME280;5526;42.070;24.752;2023-05-19T06:49:42;99145.03;;;20.71;67.26
10948;BME280;5526;42.070;24.752;2023-05-19T06:52:11;99144.69;;;21.07;67.37
10948;BME280;5526;42.070;24.752;2023-05-19T06:54:38;99141.63;;;21.43;66.25
10948;BME280;5526;42.070;24.752;2023-05-19T06:57:05;99145.03;;;21.98;62.73
10948;BME280;5526;42.070;24.752;2023-05-19T06:59:32;99143.56;;;21.17;64.81
10948;BME280;5526;42.070;24.752;2023-05-19T07:02:02;99136.38;;;20.49;68.02
10948;BME280;5526;42.070;24.752;2023-05-19T07:04:29;99143.63;;;20.48;67.80
10948;BME280;5526;42.070;24.752;2023-05-19T07:06:56;99146.47;;;20.69;67.54
10948;BME280;5526;42.070;24.752;2023-05-19T07:09:24;99132.47;;;20.72;67.63
10948;BME280;5526;42.070;24.752;2023-05-19T07:11:51;99133.41;;;20.93;67.83
10948;BME280;5526;42.070;24.752;2023-05-19T07:14:20;99140.91;;;21.17;66.70
10948;BME280;5526;42.070;24.752;2023-05-19T07:16:47;99136.28;;;21.34;66.50
10948;BME280;5526;42.070;24.752;2023-05-19T07:19:15;99129.88;;;21.18;66.54
10948;BME280;5526;42.070;24.752;2023-05-19T07:21:44;99129.25;;;21.59;66.20
10948;BME280;5526;42.070;24.752;2023-05-19T07:24:11;99132.44;;;21.52;65.18
10948;BME280;5526;42.070;24.752;2023-05-19T07:26:40;99125.91;;;21.70;63.57
10948;BME280;5526;42.070;24.752;2023-05-19T07:29:07;99137.50;;;21.91;65.18
10948;BME280;5526;42.070;24.752;2023-05-19T07:31:34;99139.25;;;22.37;64.47
10948;BME280;5526;42.070;24.752;2023-05-19T07:34:01;99140.16;;;22.20;63.18
10948;BME280;5526;42.070;24.752;2023-05-19T07:36:28;99140.69;;;22.34;62.36
10948;BME280;5526;42.070;24.752;2023-05-19T07:38:56;99144.28;;;22.47;63.20
10948;BME280;5526;42.070;24.752;2023-05-19T07:41:23;99149.06;;;22.94;61.23
10948;BME280;5526;42.070;24.752;2023-05-19T07:43:52;99153.16;;;22.80;61.55
10948;BME280;5526;42.070;24.752;2023-05-19T07:46:19;99146.94;;;22.67;61.42
10948;BME280;5526;42.070;24.752;2023-05-19T07:48:46;99153.84;;;22.89;61.27
10948;BME280;5526;42.070;24.752;2023-05-19T07:51:13;99156.84;;;23.40;60.13
10948;BME280;5526;42.070;24.752;2023-05-19T07:53:40;99156.25;;;23.02;59.15
10948;BME280;5526;42.070;24.752;2023-05-19T07:56:07;99155.38;;;22.78;60.27
10948;BME280;5526;42.070;24.752;2023-05-19T07:58:35;99150.78;;;23.11;59.03
10948;BME280;5526;42.070;24.752;2023-05-19T08:01:03;99149.91;;;23.39;58.66
10948;BME280;5526;42.070;24.752;2023-05-19T08:03:30;99151.91;;;23.30;58.04
10948;BME280;5526;42.070;24.752;2023-05-19T08:05:58;99152.69;;;23.55;58.96
10948;BME280;5526;42.070;24.752;2023-05-19T08:08:25;99156.44;;;23.74;57.44
10948;BME280;5526;42.070;24.752;2023-05-19T08:10:52;99151.31;;;24.05;57.20
10948;BME280;5526;42.070;24.752;2023-05-19T08:13:19;99162.03;;;24.29;55.81
10948;BME280;5526;42.070;24.752;2023-05-19T08:15:46;99155.25;;;24.47;56.05
10948;BME280;5526;42.070;24.752;2023-05-19T08:18:15;99153.56;;;24.55;55.61
10948;BME280;5526;42.070;24.752;2023-05-19T08:20:42;99149.22;;;24.38;56.22
10948;BME280;5526;42.070;24.752;2023-05-19T08:23:10;99151.00;;;24.46;55.44
10948;BME280;5526;42.070;24.752;2023-05-19T08:25:37;99156.69;;;24.69;54.31
10948;BME280;5526;42.070;24.752;2023-05-19T08:28:05;99157.56;;;24.21;54.63
10948;BME280;5526;42.070;24.752;2023-05-19T08:30:32;99149.19;;;24.50;55.71
10948;BME280;5526;42.070;24.752;2023-05-19T08:32:59;99151.22;;;24.53;55.88
10948;BME280;5526;42.070;24.752;2023-05-19T08:35:28;99147.06;;;24.56;54.37
10948;BME280;5526;42.070;24.752;2023-05-19T08:37:55;99155.47;;;24.94;54.17
10948;BME280;5526;42.070;24.752;2023-05-19T08:40:22;99153.00;;;25.17;53.31
10948;BME280;5526;42.070;24.752;2023-05-19T08:42:49;99153.44;;;25.19;52.84
10948;BME280;5526;42.070;24.752;2023-05-19T08:45:16;99155.75;;;25.05;51.09
10948;BME280;5526;42.070;24.752;2023-05-19T08:47:45;99149.81;;;24.84;50.13
10948;BME280;5526;42.070;24.752;2023-05-19T08:50:16;99149.41;;;24.97;48.66
10948;BME280;5526;42.070;24.752;2023-05-19T08:52:50;99149.25;;;25.49;49.36
10948;BME280;5526;42.070;24.752;2023-05-19T08:55:24;99144.19;;;25.47;48.39
10948;BME280;5526;42.070;24.752;2023-05-19T08:57:55;99145.84;;;25.52;48.29
10948;BME280;5526;42.070;24.752;2023-05-19T09:00:23;99148.28;;;25.72;48.38
10948;BME280;5526;42.070;24.752;2023-05-19T09:02:51;99143.00;;;25.60;48.29
10948;BME280;5526;42.070;24.752;2023-05-19T09:05:19;99151.81;;;25.30;48.80
10948;BME280;5526;42.070;24.752;2023-05-19T09:07:48;99144.38;;;24.96;50.59
10948;BME280;5526;42.070;24.752;2023-05-19T09:10:15;99140.34;;;24.90;51.06
10948;BME280;5526;42.070;24.752;2023-05-19T09:12:43;99146.41;;;25.14;49.77
10948;BME280;5526;42.070;24.752;2023-05-19T09:15:12;99141.72;;;25.27;49.20
10948;BME280;5526;42.070;24.752;2023-05-19T09:17:42;99138.50;;;25.21;49.17
10948;BME280;5526;42.070;24.752;2023-05-19T09:20:09;99137.81;;;25.86;48.53
10948;BME280;5526;42.070;24.752;2023-05-19T09:22:40;99141.78;;;25.58;49.06
10948;BME280;5526;42.070;24.752;2023-05-19T09:25:21;99134.59;;;26.12;48.03
10948;BME280;5526;42.070;24.752;2023-05-19T09:27:49;99137.84;;;25.71;46.53
10948;BME280;5526;42.070;24.752;2023-05-19T09:30:17;99145.31;;;25.46;46.93
10948;BME280;5526;42.070;24.752;2023-05-19T09:32:44;99142.50;;;26.20;46.64
10948;BME280;5526;42.070;24.752;2023-05-19T09:35:12;99141.44;;;26.59;45.43
10948;BME280;5526;42.070;24.752;2023-05-19T09:37:42;99136.59;;;26.87;44.05
10948;BME280;5526;42.070;24.752;2023-05-19T09:40:09;99138.25;;;26.73;44.77
10948;BME280;5526;42.070;24.752;2023-05-19T09:42:40;99142.66;;;26.62;44.09
10948;BME280;5526;42.070;24.752;2023-05-19T09:45:08;99141.09;;;26.99;45.43
10948;BME280;5526;42.070;24.752;2023-05-19T09:47:36;99136.75;;;27.17;44.03
10948;BME280;5526;42.070;24.752;2023-05-19T09:50:04;99130.81;;;27.08;44.01
10948;BME280;5526;42.070;24.752;2023-05-19T09:52:35;99128.34;;;26.80;42.67
10948;BME280;5526;42.070;24.752;2023-05-19T09:55:04;99134.22;;;27.05;42.14
10948;BME280;5526;42.070;24.752;2023-05-19T09:57:33;99126.75;;;27.17;41.41
10948;BME280;5526;42.070;24.752;2023-05-19T10:00:04;99130.44;;;26.33;42.31
10948;BME280;5526;42.070;24.752;2023-05-19T10:02:41;99127.16;;;26.59;43.46
10948;BME280;5526;42.070;24.752;2023-05-19T10:05:13;99122.72;;;26.51;44.74
10948;BME280;5526;42.070;24.752;2023-05-19T10:07:42;99124.81;;;26.57;43.02
10948;BME280;5526;42.070;24.752;2023-05-19T10:10:14;99117.66;;;25.80;42.96
10948;BME280;5526;42.070;24.752;2023-05-19T10:12:41;99115.06;;;25.53;45.06
10948;BME280;5526;42.070;24.752;2023-05-19T10:15:12;99120.38;;;25.34;44.98
10948;BME280;5526;42.070;24.752;2023-05-19T10:17:40;99123.59;;;25.39;45.04
10948;BME280;5526;42.070;24.752;2023-05-19T10:20:09;99115.38;;;25.82;45.86
10948;BME280;5526;42.070;24.752;2023-05-19T10:22:37;99114.00;;;25.73;46.13
10948;BME280;5526;42.070;24.752;2023-05-19T10:25:05;99107.19;;;26.10;46.19
10948;BME280;5526;42.070;24.752;2023-05-19T10:27:34;99110.53;;;25.57;46.86
10948;BME280;5526;42.070;24.752;2023-05-19T10:30:07;99099.03;;;25.91;45.35
10948;BME280;5526;42.070;24.752;2023-05-19T10:32:39;99103.84;;;25.82;45.56
10948;BME280;5526;42.070;24.752;2023-05-19T10:35:17;99097.34;;;26.36;43.84
10948;BME280;5526;42.070;24.752;2023-05-19T10:37:54;99104.28;;;27.13;44.82
10948;BME280;5526;42.070;24.752;2023-05-19T10:40:26;99093.75;;;27.50;43.65
10948;BME280;5526;42.070;24.752;2023-05-19T10:43:12;99095.88;;;28.12;42.64
10948;BME280;5526;42.070;24.752;2023-05-19T10:45:44;99095.56;;;28.47;41.62
10948;BME280;5526;42.070;24.752;2023-05-19T10:48:14;99094.25;;;28.67;42.25
10948;BME280;5526;42.070;24.752;2023-05-19T10:50:45;99098.28;;;28.47;43.50
10948;BME280;5526;42.070;24.752;2023-05-19T10:53:16;99092.19;;;28.27;40.69
10948;BME280;5526;42.070;24.752;2023-05-19T10:55:48;99105.41;;;27.80;42.00
10948;BME280;5526;42.070;24.752;2023-05-19T10:58:38;99107.19;;;27.24;41.86
10948;BME280;5526;42.070;24.752;2023-05-19T11:01:06;99113.97;;;26.95;44.15
10948;BME280;5526;42.070;24.752;2023-05-19T11:03:46;99146.97;;;25.97;43.32
10948;BME280;5526;42.070;24.752;2023-05-19T11:06:24;99136.19;;;24.65;48.07
10948;BME280;5526;42.070;24.752;2023-05-19T11:08:56;99145.44;;;23.67;53.69
10948;BME280;5526;42.070;24.752;2023-05-19T11:11:25;99138.22;;;23.23;54.70
10948;BME280;5526;42.070;24.752;2023-05-19T11:13:54;99151.47;;;22.55;56.15
10948;BME280;5526;42.070;24.752;2023-05-19T11:16:27;99129.50;;;22.32;57.10
10948;BME280;5526;42.070;24.752;2023-05-19T11:18:58;99110.81;;;22.44;56.43
10948;BME280;5526;42.070;24.752;2023-05-19T11:21:40;99102.88;;;22.27;56.25
10948;BME280;5526;42.070;24.752;2023-05-19T11:24:07;99112.19;;;22.09;56.93
10948;BME280;5526;42.070;24.752;2023-05-19T11:26:40;99098.44;;;22.31;57.88
10948;BME280;5526;42.070;24.752;2023-05-19T11:29:09;99096.81;;;22.18;58.69
10948;BME280;5526;42.070;24.752;2023-05-19T11:31:36;99093.38;;;21.89;60.65
10948;BME280;5526;42.070;24.752;2023-05-19T11:34:07;99093.06;;;21.90;60.27
10948;BME280;5526;42.070;24.752;2023-05-19T11:36:36;99101.13;;;21.82;61.01
10948;BME280;5526;42.070;24.752;2023-05-19T11:39:05;99087.41;;;21.83;61.02
10948;BME280;5526;42.070;24.752;2023-05-19T11:41:37;99098.78;;;21.80;61.17
10948;BME280;5526;42.070;24.752;2023-05-19T11:44:08;99093.91;;;21.82;61.23
10948;BME280;5526;42.070;24.752;2023-05-19T11:46:36;99093.28;;;21.68;61.78
10948;BME280;5526;42.070;24.752;2023-05-19T11:49:03;99094.63;;;21.91;61.80
10948;BME280;5526;42.070;24.752;2023-05-19T11:51:32;99089.78;;;22.55;61.31
10948;BME280;5526;42.070;24.752;2023-05-19T11:54:01;99091.81;;;23.02;61.11
10948;BME280;5526;42.070;24.752;2023-05-19T11:56:32;99094.38;;;23.55;60.77
10948;BME280;5526;42.070;24.752;2023-05-19T11:59:00;99085.75;;;23.98;59.25
10948;BME280;5526;42.070;24.752;2023-05-19T12:01:27;99081.53;;;24.36;58.34
10948;BME280;5526;42.070;24.752;2023-05-19T12:03:56;99089.44;;;24.85;57.35
10948;BME280;5526;42.070;24.752;2023-05-19T12:06:24;99081.59;;;25.23;56.16
10948;BME280;5526;42.070;24.752;2023-05-19T12:08:53;99074.91;;;25.63;56.14
10948;BME280;5526;42.070;24.752;2023-05-19T12:11:22;99074.06;;;25.94;55.23
10948;BME280;5526;42.070;24.752;2023-05-19T12:13:49;99067.59;;;26.33;54.03
10948;BME280;5526;42.070;24.752;2023-05-19T12:16:19;99068.19;;;26.61;51.42
10948;BME280;5526;42.070;24.752;2023-05-19T12:18:46;99066.16;;;26.96;50.64
10948;BME280;5526;42.070;24.752;2023-05-19T12:21:13;99070.63;;;27.30;49.68
10948;BME280;5526;42.070;24.752;2023-05-19T12:23:41;99061.59;;;27.71;48.49
10948;BME280;5526;42.070;24.752;2023-05-19T12:26:10;99059.44;;;28.06;47.84
10948;BME280;5526;42.070;24.752;2023-05-19T12:28:37;99056.75;;;28.09;46.65
10948;BME280;5526;42.070;24.752;2023-05-19T12:31:05;99055.41;;;28.52;43.61
10948;BME280;5526;42.070;24.752;2023-05-19T12:33:32;99052.63;;;28.82;41.02
10948;BME280;5526;42.070;24.752;2023-05-19T12:35:59;99049.16;;;28.19;42.29
10948;BME280;5526;42.070;24.752;2023-05-19T12:38:26;99052.78;;;28.30;40.23
10948;BME280;5526;42.070;24.752;2023-05-19T12:40:57;99053.63;;;28.04;39.45
10948;BME280;5526;42.070;24.752;2023-05-19T12:43:25;99048.41;;;27.92;40.46
10948;BME280;5526;42.070;24.752;2023-05-19T12:45:52;99051.69;;;27.52;40.04
10948;BME280;5526;42.070;24.752;2023-05-19T12:48:21;99055.06;;;27.23;40.53
10948;BME280;5526;42.070;24.752;2023-05-19T12:50:50;99042.09;;;27.58;39.56
10948;BME280;5526;42.070;24.752;2023-05-19T12:53:18;99047.81;;;27.53;39.72
10948;BME280;5526;42.070;24.752;2023-05-19T12:55:46;99048.09;;;27.71;39.74
10948;BME280;5526;42.070;24.752;2023-05-19T12:58:14;99037.81;;;28.09;39.28
10948;BME280;5526;42.070;24.752;2023-05-19T13:00:44;99041.41;;;28.17;38.14
10948;BME280;5526;42.070;24.752;2023-05-19T13:03:14;99033.63;;;28.12;38.59
10948;BME280;5526;42.070;24.752;2023-05-19T13:05:44;99031.53;;;28.32;38.15
10948;BME280;5526;42.070;24.752;2023-05-19T13:08:13;99029.59;;;28.32;38.45
10948;BME280;5526;42.070;24.752;2023-05-19T13:10:42;99030.16;;;28.45;38.62
10948;BME280;5526;42.070;24.752;2023-05-19T13:13:10;99031.50;;;28.61;37.97
10948;BME280;5526;42.070;24.752;2023-05-19T13:15:39;99034.75;;;28.77;37.39